createdAt,value
2023-06-18T00:02:57.097Z,0
2023-06-18T00:08:06.617Z,0
2023-06-18T00:13:16.348Z,0
2023-06-18T00:18:24.825Z,0
2023-06-18T00:23:34.600Z,0
2023-06-18T00:28:44.342Z,0
2023-06-18T00:33:52.930Z,0
2023-06-18T00:39:01.317Z,0
2023-06-18T00:44:10.443Z,0
2023-06-18T00:49:19.589Z,0
2023-06-18T00:54:29.345Z,0
2023-06-18T00:59:39.062Z,0
2023-06-18T01:04:49.731Z,0
2023-06-18T02:01:29.898Z,0
2023-06-18T02:06:38.271Z,0
2023-06-18T02:11:47.372Z,0
2023-06-18T02:16:56.523Z,0
2023-06-18T02:22:06.258Z,0
2023-06-18T02:27:14.760Z,0
2023-06-18T02:32:23.966Z,0
2023-06-18T02:37:33.633Z,1
2023-06-18T02:42:42.121Z,1
2023-06-18T02:47:50.137Z,3
2023-06-18T02:52:59.834Z,7
2023-06-18T02:58:08.204Z,17
2023-06-18T03:03:17.942Z,27
2023-06-18T03:08:26.472Z,34
2023-06-18T03:13:36.189Z,52
2023-06-18T03:18:44.865Z,80
2023-06-18T03:23:53.224Z,112
2023-06-18T03:29:01.641Z,144
2023-06-18T03:34:10.122Z,178
2023-06-18T03:39:19.862Z,214
2023-06-18T03:44:29.623Z,260
2023-06-18T03:49:38.100Z,310
2023-06-18T03:54:47.219Z,412
2023-06-18T03:59:56.390Z,386
2023-06-18T04:05:05.668Z,476
2023-06-18T04:10:14.645Z,463
2023-06-18T04:15:24.357Z,488
2023-06-18T04:20:32.892Z,591
2023-06-18T04:25:41.592Z,523
2023-06-18T04:30:49.801Z,576
2023-06-18T04:35:58.274Z,601
2023-06-18T04:41:08.053Z,583
2023-06-18T04:46:16.512Z,526
2023-06-18T04:51:24.973Z,663
2023-06-18T04:56:34.770Z,682
2023-06-18T05:01:43.246Z,757
2023-06-18T05:06:51.936Z,1504
2023-06-18T05:12:01.507Z,1297
2023-06-18T05:17:10.157Z,901
2023-06-18T06:08:40.039Z,1287
2023-06-18T06:13:48.360Z,1246
2023-06-18T06:18:57.490Z,1151
2023-06-18T06:24:07.380Z,1152
2023-06-18T06:29:16.970Z,1079
2023-06-18T06:34:25.539Z,1344
2023-06-18T06:39:34.647Z,1414
2023-06-18T06:44:43.068Z,1333
2023-06-18T06:49:51.601Z,1314
2023-06-18T06:55:00.123Z,1337
2023-06-18T07:00:09.805Z,1308
2023-06-18T07:05:19.565Z,1349
2023-06-18T07:10:28.696Z,1345
2023-06-18T07:15:36.506Z,1440
2023-06-18T07:20:45.672Z,1831
2023-06-18T07:25:54.100Z,1367
2023-06-18T07:31:02.624Z,1437
2023-06-18T07:36:12.354Z,1434
2023-06-18T07:41:20.858Z,1403
2023-06-18T07:46:30.217Z,1422
2023-06-18T07:51:39.095Z,1481
2023-06-18T07:56:47.798Z,1472
2023-06-18T08:01:56.908Z,1472
2023-06-18T08:07:06.434Z,1424
2023-06-18T08:12:14.959Z,1534
2023-06-18T08:17:24.761Z,1622
2023-06-18T08:22:33.844Z,1669
2023-06-18T08:27:42.936Z,1698
2023-06-18T08:32:52.829Z,1605
2023-06-18T08:38:01.876Z,1479
2023-06-18T08:43:10.274Z,1887
2023-06-18T08:48:35.658Z,1836
2023-06-18T08:53:27.901Z,1899
2023-06-18T08:58:36.335Z,1851
2023-06-18T09:03:46.161Z,1841
2023-06-18T09:08:54.589Z,1851
2023-06-18T09:14:03.719Z,1833
2023-06-18T09:19:13.491Z,1833
2023-06-18T09:24:22.170Z,1731
2023-06-18T09:29:31.058Z,1780
2023-06-18T09:34:40.249Z,1875
2023-06-18T09:39:49.322Z,1744
2023-06-18T09:44:57.826Z,1901
2023-06-18T09:50:07.595Z,1916
2023-06-18T09:55:16.966Z,1941
2023-06-18T10:51:58.350Z,2617
2023-06-18T10:57:06.763Z,2867
2023-06-18T11:02:16.654Z,2440
2023-06-18T11:07:26.292Z,1943
2023-06-18T11:12:35.404Z,2353
2023-06-18T11:17:43.412Z,2321
2023-06-18T11:22:51.699Z,2059
2023-06-18T11:28:00.229Z,2135
2023-06-18T11:33:09.409Z,1929
2023-06-18T11:38:18.435Z,2268
2023-06-18T11:43:26.941Z,2273
2023-06-18T11:48:36.656Z,2351
2023-06-18T11:53:47.435Z,2029
2023-06-18T11:58:57.812Z,1852
2023-06-18T12:04:03.678Z,1764
2023-06-18T12:09:12.272Z,1674
2023-06-18T12:14:20.998Z,1738
2023-06-18T12:19:29.496Z,1064
2023-06-18T12:24:37.571Z,1584
2023-06-18T12:29:46.429Z,1276
2023-06-18T12:47:41.373Z,2630
2023-06-18T12:52:50.749Z,2184
2023-06-18T12:58:00.501Z,2054
2023-06-18T13:03:10.001Z,2508
2023-06-18T13:08:18.778Z,2180
2023-06-18T13:13:27.225Z,1684
2023-06-18T13:18:36.358Z,2850
2023-06-18T13:23:45.464Z,1717
2023-06-18T13:28:55.261Z,1462
2023-06-18T13:34:03.702Z,1438
2023-06-18T13:39:12.826Z,1546
2023-06-18T13:44:21.302Z,1560
2023-06-18T13:49:30.430Z,1616
2023-06-18T13:54:38.904Z,1738
2023-06-18T13:59:47.397Z,1652
2023-06-18T14:04:57.068Z,1581
2023-06-18T14:10:06.491Z,1548
2023-06-18T14:15:14.101Z,1618
2023-06-18T14:20:23.860Z,1727
2023-06-18T14:25:32.328Z,1688
2023-06-18T14:30:42.762Z,1655
2023-06-18T14:35:51.871Z,1720
2023-06-18T14:41:00.346Z,1648
2023-06-18T14:46:09.057Z,1498
2023-06-18T14:51:18.601Z,1468
2023-06-18T14:56:27.768Z,1513
2023-06-18T15:01:39.064Z,1451
2023-06-18T15:06:47.791Z,1438
2023-06-18T15:11:53.176Z,1388
2023-06-18T15:17:01.702Z,1179
2023-06-18T15:22:11.400Z,1073
2023-06-18T15:27:20.528Z,1169
2023-06-18T15:32:29.150Z,1071
2023-06-18T15:37:44.561Z,955
2023-06-18T15:42:52.997Z,985
2023-06-18T15:48:02.404Z,899
2023-06-18T15:53:10.591Z,764
2023-06-18T15:58:19.075Z,773
2023-06-18T16:03:27.558Z,676
2023-06-18T16:08:37.365Z,787
2023-06-18T17:00:04.771Z,174
2023-06-18T17:05:13.154Z,210
2023-06-18T17:10:21.668Z,263
2023-06-18T17:15:30.139Z,265
2023-06-18T17:20:39.866Z,285
2023-06-18T17:25:50.931Z,345
2023-06-18T17:31:00.685Z,422
2023-06-18T17:36:09.798Z,418
2023-06-18T17:41:19.548Z,408
2023-06-18T17:46:28.922Z,364
2023-06-18T17:51:37.779Z,350
2023-06-18T17:56:46.288Z,380
2023-06-18T18:01:54.391Z,416
2023-06-18T18:07:02.572Z,363
2023-06-18T18:12:11.744Z,392
2023-06-18T18:17:20.945Z,360
2023-06-18T18:22:30.582Z,283
2023-06-18T18:27:43.572Z,234
2023-06-18T18:32:52.187Z,207
2023-06-18T18:38:00.526Z,240
2023-06-18T18:43:09.624Z,227
2023-06-18T18:48:18.124Z,205
2023-06-18T18:53:26.597Z,189
2023-06-18T18:58:36.467Z,167
2023-06-18T19:03:46.288Z,161
2023-06-18T19:08:55.218Z,155
2023-06-18T19:14:05.014Z,145
2023-06-18T19:19:13.493Z,130
2023-06-18T19:24:22.076Z,113
2023-06-18T19:29:30.413Z,87
2023-06-18T19:34:38.909Z,60
2023-06-18T19:39:47.428Z,37
2023-06-18T19:44:55.922Z,21
2023-06-18T19:50:04.342Z,12
2023-06-18T19:55:12.821Z,7
2023-06-18T20:00:23.770Z,4
2023-06-18T20:05:31.706Z,2
2023-06-18T20:10:41.484Z,1
2023-06-18T21:02:15.474Z,0
2023-06-18T21:07:24.461Z,0
2023-06-18T21:12:34.098Z,0
2023-06-18T21:17:42.762Z,0
2023-06-18T21:22:51.745Z,0
2023-06-18T21:28:00.833Z,0
2023-06-18T21:33:09.474Z,0
2023-06-18T21:38:19.111Z,0
2023-06-18T21:43:28.205Z,0
2023-06-18T21:48:37.961Z,0
2023-06-18T21:53:47.092Z,0
2023-06-18T21:58:56.200Z,0
2023-06-18T22:04:06.113Z,0
2023-06-18T22:09:14.445Z,0
2023-06-18T22:14:23.557Z,0
2023-06-18T22:19:33.319Z,0
2023-06-18T22:24:42.596Z,0
2023-06-18T22:29:53.905Z,0
2023-06-18T22:34:59.402Z,0
2023-06-18T22:40:07.919Z,0
2023-06-18T22:45:15.771Z,0
2023-06-18T22:50:26.026Z,0
2023-06-18T22:55:32.697Z,0
2023-06-18T23:00:42.443Z,0
2023-06-18T23:05:51.689Z,0
2023-06-18T23:11:00.710Z,0
2023-06-18T23:16:10.523Z,0
2023-06-18T23:21:20.186Z,0
2023-06-18T23:26:30.604Z,0
2023-06-18T23:31:40.494Z,0
2023-06-18T23:36:48.847Z,0
2023-06-18T23:41:57.349Z,0
2023-06-18T23:47:05.797Z,0
2023-06-18T23:52:14.937Z,0
2023-06-18T23:57:23.389Z,0
